NOZ27GE EDDH-ENGM
Flight info
| Callsign | NOZ27GE |
|---|---|
| Flight time | 1h 6m |
| Altitude | 37000 |
| Route | SOKWO1G/33 SOKWO T814 EXNEL M105 AMRAK DCT NERDO/N0441F380 DCT PIPEX/N0441F390 M609 RIPAM |
| Aircraft | A320/M-SDE3FGHIRWY/LB1 |
Departure
| Time | 2026-05-05 20:11 |
|---|---|
| Airport | Hamburg Helmut Schmidt Airport (EDDH) |
Arrival
| Time | 2026-05-05 21:17 |
|---|---|
| Airport | Oslo-Gardermoen International Airport (ENGM) |
| Time | Latitude | Longitude | Altitude | Speed | Heading |
|---|---|---|---|---|---|
| 2026-05-05 19:43 | 53.62807 | 10.00240 | 48 ft | 0 kts | 62° |
| 2026-05-05 20:03 | 53.62798 | 10.00212 | 44 ft | 4 kts | 56° |
| 2026-05-05 20:04 | 53.62781 | 10.00178 | 45 ft | 4 kts | 40° |
| 2026-05-05 20:04 | 53.62759 | 10.00156 | 46 ft | 4 kts | 5° |
| 2026-05-05 20:04 | 53.62744 | 10.00158 | 46 ft | 0 kts | 333° |
| 2026-05-05 20:07 | 53.62748 | 10.00155 | 47 ft | 2 kts | 333° |
| 2026-05-05 20:08 | 53.62771 | 10.00135 | 48 ft | 5 kts | 332° |
| 2026-05-05 20:08 | 53.62813 | 10.00099 | 48 ft | 9 kts | 333° |
| 2026-05-05 20:08 | 53.62853 | 10.00013 | 48 ft | 11 kts | 271° |
| 2026-05-05 20:08 | 53.62822 | 9.99877 | 43 ft | 9 kts | 247° |
| 2026-05-05 20:09 | 53.62814 | 9.99838 | 44 ft | 3 kts | 257° |
| 2026-05-05 20:09 | 53.62820 | 9.99803 | 45 ft | 0 kts | 302° |
| 2026-05-05 20:09 | 53.62828 | 9.99787 | 42 ft | 3 kts | 309° |
| 2026-05-05 20:09 | 53.62856 | 9.99754 | 45 ft | 7 kts | 329° |
| 2026-05-05 20:10 | 53.62906 | 9.99707 | 45 ft | 10 kts | 335° |
| 2026-05-05 20:10 | 53.62987 | 9.99641 | 44 ft | 25 kts | 333° |
| 2026-05-05 20:10 | 53.63385 | 9.99303 | 47 ft | 99 kts | 332° |
| 2026-05-05 20:10 | 53.64158 | 9.98631 | 49 ft | 149 kts | 333° |
| 2026-05-05 20:11 | 53.65125 | 9.97787 | 555 ft | 155 kts | 334° |
| 2026-05-05 20:11 | 53.66088 | 9.96952 | 1281 ft | 157 kts | 338° |
| 2026-05-05 20:11 | 53.67113 | 9.96085 | 1772 ft | 177 kts | 339° |
| 2026-05-05 20:11 | 53.68291 | 9.95107 | 2177 ft | 199 kts | 341° |
| 2026-05-05 20:12 | 53.69682 | 9.94668 | 2662 ft | 208 kts | 4° |
| 2026-05-05 20:12 | 53.71145 | 9.94695 | 3315 ft | 212 kts | 4° |
| 2026-05-05 20:12 | 53.72638 | 9.94720 | 4015 ft | 216 kts | 6° |
| 2026-05-05 20:12 | 53.74093 | 9.95357 | 4638 ft | 221 kts | 27° |
| 2026-05-05 20:13 | 53.75461 | 9.96770 | 5102 ft | 238 kts | 34° |
| 2026-05-05 20:13 | 53.76870 | 9.98319 | 5879 ft | 244 kts | 33° |
| 2026-05-05 20:13 | 53.78315 | 9.99914 | 6622 ft | 251 kts | 33° |
| 2026-05-05 20:13 | 53.79794 | 10.01548 | 7385 ft | 257 kts | 32° |
| 2026-05-05 20:14 | 53.81309 | 10.03218 | 8146 ft | 263 kts | 32° |
| 2026-05-05 20:14 | 53.82857 | 10.04919 | 8934 ft | 267 kts | 31° |
| 2026-05-05 20:14 | 53.84437 | 10.06651 | 9646 ft | 278 kts | 31° |
| 2026-05-05 20:14 | 53.86129 | 10.08496 | 10075 ft | 300 kts | 31° |
| 2026-05-05 20:15 | 53.88051 | 10.10159 | 10399 ft | 321 kts | 17° |
| 2026-05-05 20:15 | 53.90270 | 10.10951 | 10951 ft | 330 kts | 1° |
| 2026-05-05 20:15 | 53.92540 | 10.10741 | 11695 ft | 332 kts | 346° |
| 2026-05-05 20:15 | 53.94800 | 10.09834 | 12463 ft | 335 kts | 343° |
| 2026-05-05 20:16 | 53.97080 | 10.08874 | 13249 ft | 339 kts | 343° |
| 2026-05-05 20:16 | 53.99390 | 10.07890 | 13980 ft | 344 kts | 343° |
| 2026-05-05 20:16 | 54.01721 | 10.06894 | 14658 ft | 348 kts | 343° |
| 2026-05-05 20:16 | 54.04080 | 10.05892 | 15326 ft | 351 kts | 343° |
| 2026-05-05 20:17 | 54.06464 | 10.04887 | 15986 ft | 355 kts | 343° |
| 2026-05-05 20:17 | 54.08855 | 10.03760 | 16660 ft | 357 kts | 336° |
| 2026-05-05 20:17 | 54.11087 | 10.01933 | 17333 ft | 356 kts | 324° |
| 2026-05-05 20:17 | 54.13060 | 9.99395 | 18010 ft | 355 kts | 313° |
| 2026-05-05 20:18 | 54.14725 | 9.96359 | 18614 ft | 356 kts | 308° |
| 2026-05-05 20:18 | 54.16381 | 9.93195 | 19233 ft | 359 kts | 308° |
| 2026-05-05 20:18 | 54.18059 | 9.90001 | 19834 ft | 363 kts | 308° |
| 2026-05-05 20:18 | 54.19752 | 9.86775 | 20421 ft | 366 kts | 308° |
| 2026-05-05 20:19 | 54.21459 | 9.83522 | 20988 ft | 369 kts | 308° |
| 2026-05-05 20:19 | 54.23180 | 9.80239 | 21548 ft | 372 kts | 308° |
| 2026-05-05 20:19 | 54.25059 | 9.77143 | 22074 ft | 380 kts | 317° |
| 2026-05-05 20:19 | 54.27204 | 9.74451 | 22609 ft | 385 kts | 320° |
| 2026-05-05 20:20 | 54.29380 | 9.71757 | 23161 ft | 388 kts | 320° |
| 2026-05-05 20:20 | 54.31573 | 9.69030 | 23668 ft | 391 kts | 319° |
| 2026-05-05 20:20 | 54.33838 | 9.66386 | 24137 ft | 397 kts | 326° |
| 2026-05-05 20:20 | 54.36385 | 9.64426 | 24583 ft | 407 kts | 337° |
| 2026-05-05 20:21 | 54.39170 | 9.63365 | 25068 ft | 416 kts | 348° |
| 2026-05-05 20:21 | 54.42112 | 9.63310 | 25520 ft | 427 kts | 1° |
| 2026-05-05 20:21 | 54.45057 | 9.64195 | 25951 ft | 433 kts | 6° |
| 2026-05-05 20:21 | 54.48026 | 9.65193 | 26372 ft | 436 kts | 6° |
| 2026-05-05 20:22 | 54.51017 | 9.66173 | 26789 ft | 439 kts | 6° |
| 2026-05-05 20:22 | 54.54043 | 9.67146 | 27210 ft | 442 kts | 6° |
| 2026-05-05 20:22 | 54.57077 | 9.68102 | 27621 ft | 445 kts | 5° |
| 2026-05-05 20:22 | 54.60138 | 9.69061 | 28027 ft | 448 kts | 5° |
| 2026-05-05 20:23 | 54.63228 | 9.70027 | 28459 ft | 452 kts | 5° |
| 2026-05-05 20:23 | 54.66328 | 9.70987 | 28885 ft | 454 kts | 4° |
| 2026-05-05 20:23 | 54.69449 | 9.71860 | 29311 ft | 456 kts | 3° |
| 2026-05-05 20:23 | 54.72556 | 9.72648 | 29701 ft | 458 kts | 2° |
| 2026-05-05 20:24 | 54.75722 | 9.73410 | 30093 ft | 461 kts | 2° |
| 2026-05-05 20:24 | 54.78913 | 9.74173 | 30445 ft | 464 kts | 2° |
| 2026-05-05 20:24 | 54.82120 | 9.74740 | 30791 ft | 462 kts | 356° |
| 2026-05-05 20:24 | 54.85318 | 9.74595 | 31159 ft | 458 kts | 348° |
| 2026-05-05 20:25 | 54.88504 | 9.74091 | 31551 ft | 460 kts | 348° |
| 2026-05-05 20:25 | 54.91694 | 9.73591 | 32054 ft | 459 kts | 348° |
| 2026-05-05 20:25 | 54.94870 | 9.73097 | 32634 ft | 456 kts | 348° |
| 2026-05-05 20:25 | 54.98023 | 9.72602 | 33173 ft | 454 kts | 348° |
| 2026-05-05 20:26 | 55.01171 | 9.72108 | 33699 ft | 453 kts | 347° |
| 2026-05-05 20:26 | 55.04303 | 9.71615 | 34171 ft | 452 kts | 348° |
| 2026-05-05 20:26 | 55.07438 | 9.71119 | 34585 ft | 452 kts | 348° |
| 2026-05-05 20:26 | 55.10570 | 9.70620 | 34980 ft | 451 kts | 348° |
| 2026-05-05 20:27 | 55.13694 | 9.70118 | 35362 ft | 451 kts | 348° |
| 2026-05-05 20:27 | 55.16819 | 9.69611 | 35761 ft | 451 kts | 348° |
| 2026-05-05 20:27 | 55.19938 | 9.69105 | 36122 ft | 451 kts | 349° |
| 2026-05-05 20:27 | 55.23061 | 9.68601 | 36474 ft | 451 kts | 349° |
| 2026-05-05 20:28 | 55.26188 | 9.68097 | 36819 ft | 451 kts | 349° |
| 2026-05-05 20:28 | 55.29310 | 9.67595 | 37164 ft | 451 kts | 349° |
| 2026-05-05 20:28 | 55.32430 | 9.67091 | 37505 ft | 451 kts | 349° |
| 2026-05-05 20:28 | 55.35558 | 9.66582 | 37837 ft | 450 kts | 349° |
| 2026-05-05 20:29 | 55.38679 | 9.66076 | 38167 ft | 450 kts | 349° |
| 2026-05-05 20:29 | 55.41806 | 9.65570 | 38511 ft | 450 kts | 349° |
| 2026-05-05 20:29 | 55.44884 | 9.65076 | 38787 ft | 450 kts | 349° |
| 2026-05-05 20:29 | 55.48001 | 9.64574 | 38918 ft | 451 kts | 349° |
| 2026-05-05 20:30 | 55.51138 | 9.64063 | 38958 ft | 451 kts | 349° |
| 2026-05-05 20:30 | 55.57398 | 9.63038 | 38964 ft | 451 kts | 349° |
| 2026-05-05 20:31 | 55.63657 | 9.62013 | 38964 ft | 451 kts | 349° |
| 2026-05-05 20:31 | 55.69919 | 9.60988 | 38962 ft | 451 kts | 349° |
| 2026-05-05 20:32 | 55.76158 | 9.59958 | 38973 ft | 451 kts | 349° |
| 2026-05-05 20:32 | 55.82423 | 9.58906 | 38979 ft | 452 kts | 349° |
| 2026-05-05 20:33 | 55.88689 | 9.57871 | 38985 ft | 452 kts | 349° |
| 2026-05-05 20:33 | 55.94963 | 9.56847 | 39010 ft | 452 kts | 349° |
| 2026-05-05 20:34 | 56.01229 | 9.55802 | 39007 ft | 452 kts | 349° |
| 2026-05-05 20:34 | 56.07444 | 9.54755 | 39006 ft | 451 kts | 349° |
| 2026-05-05 20:35 | 56.13691 | 9.53706 | 39002 ft | 450 kts | 349° |
| 2026-05-05 20:35 | 56.19928 | 9.52658 | 39003 ft | 450 kts | 349° |
| 2026-05-05 20:36 | 56.26166 | 9.51617 | 39017 ft | 450 kts | 349° |
| 2026-05-05 20:36 | 56.32391 | 9.50568 | 39009 ft | 449 kts | 349° |
| 2026-05-05 20:37 | 56.38619 | 9.49505 | 39006 ft | 449 kts | 349° |
| 2026-05-05 20:37 | 56.44839 | 9.48428 | 39002 ft | 449 kts | 349° |
| 2026-05-05 20:38 | 56.51072 | 9.47355 | 39032 ft | 449 kts | 349° |
| 2026-05-05 20:38 | 56.57261 | 9.46292 | 39021 ft | 449 kts | 349° |
| 2026-05-05 20:39 | 56.63492 | 9.45233 | 39013 ft | 449 kts | 349° |
| 2026-05-05 20:39 | 56.69711 | 9.44155 | 39010 ft | 449 kts | 348° |
| 2026-05-05 20:40 | 56.75928 | 9.43072 | 39031 ft | 448 kts | 348° |
| 2026-05-05 20:40 | 56.82131 | 9.41988 | 39020 ft | 448 kts | 348° |
| 2026-05-05 20:41 | 56.88338 | 9.40906 | 39016 ft | 447 kts | 349° |
| 2026-05-05 20:41 | 56.93487 | 9.40006 | 39005 ft | 448 kts | 349° |
| 2026-05-05 20:42 | 56.99700 | 9.38916 | 39010 ft | 448 kts | 349° |
| 2026-05-05 20:42 | 57.05908 | 9.37816 | 39033 ft | 449 kts | 348° |
| 2026-05-05 20:43 | 57.12130 | 9.36710 | 39010 ft | 449 kts | 348° |
| 2026-05-05 20:43 | 57.18358 | 9.35605 | 39000 ft | 449 kts | 348° |
| 2026-05-05 20:44 | 57.24581 | 9.34505 | 39000 ft | 449 kts | 348° |
| 2026-05-05 20:44 | 57.30801 | 9.33395 | 39019 ft | 449 kts | 348° |
| 2026-05-05 20:45 | 57.40129 | 9.31711 | 39001 ft | 448 kts | 348° |
| 2026-05-05 20:45 | 57.46338 | 9.30585 | 38995 ft | 448 kts | 348° |
| 2026-05-05 20:46 | 57.52550 | 9.29466 | 38987 ft | 448 kts | 348° |
| 2026-05-05 20:46 | 57.58760 | 9.28336 | 39017 ft | 449 kts | 348° |
| 2026-05-05 20:47 | 57.64963 | 9.27215 | 38981 ft | 447 kts | 348° |
| 2026-05-05 20:47 | 57.71156 | 9.26084 | 38975 ft | 447 kts | 348° |
| 2026-05-05 20:48 | 57.77357 | 9.24940 | 38974 ft | 447 kts | 348° |
| 2026-05-05 20:48 | 57.83552 | 9.23801 | 38974 ft | 447 kts | 348° |
| 2026-05-05 20:49 | 57.89753 | 9.22651 | 38990 ft | 448 kts | 348° |
| 2026-05-05 20:49 | 57.95921 | 9.21493 | 38982 ft | 448 kts | 348° |
| 2026-05-05 20:50 | 58.02120 | 9.20308 | 38988 ft | 448 kts | 348° |
| 2026-05-05 20:50 | 58.08319 | 9.19123 | 38974 ft | 448 kts | 348° |
| 2026-05-05 20:51 | 58.14521 | 9.17940 | 38978 ft | 448 kts | 348° |
| 2026-05-05 20:51 | 58.20724 | 9.16760 | 38977 ft | 447 kts | 348° |
| 2026-05-05 20:52 | 58.26918 | 9.15575 | 38977 ft | 447 kts | 348° |
| 2026-05-05 20:52 | 58.33113 | 9.14365 | 38979 ft | 448 kts | 348° |
| 2026-05-05 20:53 | 58.39316 | 9.13158 | 38976 ft | 448 kts | 348° |
| 2026-05-05 20:53 | 58.45478 | 9.11962 | 38977 ft | 448 kts | 348° |
| 2026-05-05 20:54 | 58.51679 | 9.10759 | 38982 ft | 448 kts | 348° |
| 2026-05-05 20:54 | 58.57876 | 9.09550 | 38666 ft | 446 kts | 348° |
| 2026-05-05 20:55 | 58.60954 | 9.08948 | 38108 ft | 445 kts | 347° |
| 2026-05-05 20:55 | 58.64045 | 9.08343 | 37545 ft | 445 kts | 347° |
| 2026-05-05 20:55 | 58.67123 | 9.07742 | 36994 ft | 444 kts | 347° |
| 2026-05-05 20:55 | 58.70203 | 9.07140 | 36450 ft | 444 kts | 347° |
| 2026-05-05 20:56 | 58.73266 | 9.06533 | 36028 ft | 441 kts | 346° |
| 2026-05-05 20:56 | 58.76305 | 9.05926 | 35638 ft | 436 kts | 346° |
| 2026-05-05 20:56 | 58.79309 | 9.05328 | 35244 ft | 432 kts | 346° |
| 2026-05-05 20:56 | 58.82334 | 9.05348 | 34861 ft | 441 kts | 359° |
| 2026-05-05 20:57 | 58.85350 | 9.06748 | 34458 ft | 452 kts | 13° |
| 2026-05-05 20:57 | 58.88175 | 9.09557 | 34051 ft | 463 kts | 28° |
| 2026-05-05 20:57 | 58.90707 | 9.13339 | 33552 ft | 464 kts | 32° |
| 2026-05-05 20:57 | 58.93222 | 9.17228 | 33017 ft | 462 kts | 32° |
| 2026-05-05 20:58 | 58.95722 | 9.21099 | 32564 ft | 459 kts | 32° |
| 2026-05-05 20:58 | 58.98212 | 9.24949 | 32104 ft | 456 kts | 32° |
| 2026-05-05 20:58 | 59.00677 | 9.28767 | 31698 ft | 453 kts | 31° |
| 2026-05-05 20:58 | 59.03140 | 9.32585 | 31216 ft | 452 kts | 31° |
| 2026-05-05 20:59 | 59.05590 | 9.36388 | 30786 ft | 449 kts | 31° |
| 2026-05-05 20:59 | 59.08019 | 9.40167 | 30362 ft | 446 kts | 31° |
| 2026-05-05 20:59 | 59.10418 | 9.43907 | 29623 ft | 440 kts | 31° |
| 2026-05-05 20:59 | 59.12797 | 9.47623 | 28814 ft | 436 kts | 31° |
| 2026-05-05 21:00 | 59.15145 | 9.51301 | 28046 ft | 430 kts | 31° |
| 2026-05-05 21:00 | 59.17459 | 9.54932 | 27315 ft | 424 kts | 31° |
| 2026-05-05 21:00 | 59.19802 | 9.58337 | 26589 ft | 413 kts | 25° |
| 2026-05-05 21:00 | 59.22189 | 9.61392 | 25855 ft | 408 kts | 25° |
| 2026-05-05 21:01 | 59.24548 | 9.64418 | 25214 ft | 403 kts | 25° |
| 2026-05-05 21:01 | 59.26883 | 9.67420 | 24533 ft | 398 kts | 24° |
| 2026-05-05 21:01 | 59.29178 | 9.70380 | 23834 ft | 393 kts | 24° |
| 2026-05-05 21:01 | 59.31427 | 9.73284 | 23094 ft | 389 kts | 24° |
| 2026-05-05 21:02 | 59.33622 | 9.76347 | 22375 ft | 389 kts | 30° |
| 2026-05-05 21:02 | 59.35723 | 9.79671 | 21634 ft | 383 kts | 30° |
| 2026-05-05 21:02 | 59.37785 | 9.82946 | 20918 ft | 378 kts | 30° |
| 2026-05-05 21:02 | 59.39810 | 9.86174 | 20236 ft | 373 kts | 30° |
| 2026-05-05 21:03 | 59.41820 | 9.89376 | 19768 ft | 371 kts | 30° |
| 2026-05-05 21:03 | 59.43810 | 9.92551 | 19427 ft | 367 kts | 30° |
| 2026-05-05 21:03 | 59.45777 | 9.95703 | 18973 ft | 362 kts | 30° |
| 2026-05-05 21:03 | 59.47718 | 9.98819 | 18322 ft | 358 kts | 30° |
| 2026-05-05 21:04 | 59.49637 | 10.01908 | 17627 ft | 354 kts | 30° |
| 2026-05-05 21:04 | 59.51522 | 10.04946 | 17073 ft | 346 kts | 31° |
| 2026-05-05 21:04 | 59.53362 | 10.07916 | 16481 ft | 338 kts | 31° |
| 2026-05-05 21:04 | 59.55162 | 10.10818 | 15878 ft | 332 kts | 32° |
| 2026-05-05 21:05 | 59.56933 | 10.13676 | 15292 ft | 326 kts | 32° |
| 2026-05-05 21:05 | 59.58672 | 10.16491 | 14710 ft | 320 kts | 33° |
| 2026-05-05 21:05 | 59.60377 | 10.19252 | 14138 ft | 314 kts | 33° |
| 2026-05-05 21:05 | 59.62053 | 10.21967 | 13556 ft | 309 kts | 34° |
| 2026-05-05 21:06 | 59.63709 | 10.24654 | 13039 ft | 307 kts | 34° |
| 2026-05-05 21:06 | 59.65348 | 10.27325 | 12740 ft | 304 kts | 35° |
| 2026-05-05 21:06 | 59.66973 | 10.29983 | 12400 ft | 301 kts | 35° |
| 2026-05-05 21:06 | 59.68581 | 10.32611 | 12042 ft | 300 kts | 35° |
| 2026-05-05 21:07 | 59.70188 | 10.35238 | 11699 ft | 298 kts | 36° |
| 2026-05-05 21:07 | 59.71777 | 10.37841 | 11355 ft | 296 kts | 36° |
| 2026-05-05 21:07 | 59.73356 | 10.40434 | 11033 ft | 294 kts | 36° |
| 2026-05-05 21:07 | 59.74930 | 10.43023 | 10705 ft | 292 kts | 37° |
| 2026-05-05 21:08 | 59.76476 | 10.45570 | 10389 ft | 290 kts | 37° |
| 2026-05-05 21:08 | 59.78022 | 10.48120 | 10088 ft | 288 kts | 37° |
| 2026-05-05 21:08 | 59.79559 | 10.50658 | 9789 ft | 286 kts | 38° |
| 2026-05-05 21:08 | 59.81091 | 10.53183 | 9439 ft | 285 kts | 38° |
| 2026-05-05 21:09 | 59.82612 | 10.55689 | 9071 ft | 283 kts | 38° |
| 2026-05-05 21:09 | 59.84123 | 10.58184 | 8712 ft | 282 kts | 38° |
| 2026-05-05 21:09 | 59.85631 | 10.60680 | 8320 ft | 282 kts | 38° |
| 2026-05-05 21:09 | 59.87137 | 10.63177 | 7961 ft | 281 kts | 38° |
| 2026-05-05 21:10 | 59.88637 | 10.65669 | 7624 ft | 280 kts | 38° |
| 2026-05-05 21:10 | 59.90126 | 10.68150 | 7289 ft | 279 kts | 38° |
| 2026-05-05 21:10 | 59.91609 | 10.70627 | 6970 ft | 277 kts | 39° |
| 2026-05-05 21:10 | 59.93069 | 10.73067 | 6665 ft | 276 kts | 39° |
| 2026-05-05 21:11 | 59.94520 | 10.75492 | 6541 ft | 268 kts | 39° |
| 2026-05-05 21:11 | 59.95937 | 10.77892 | 6401 ft | 260 kts | 43° |
| 2026-05-05 21:11 | 59.97009 | 10.80729 | 6276 ft | 255 kts | 63° |
| 2026-05-05 21:11 | 59.97554 | 10.84001 | 6135 ft | 247 kts | 82° |
| 2026-05-05 21:12 | 59.97732 | 10.87336 | 5898 ft | 243 kts | 85° |
| 2026-05-05 21:12 | 59.97898 | 10.90686 | 5624 ft | 241 kts | 84° |
| 2026-05-05 21:12 | 59.98065 | 10.93994 | 5414 ft | 237 kts | 84° |
| 2026-05-05 21:12 | 59.98312 | 10.97192 | 5270 ft | 229 kts | 69° |
| 2026-05-05 21:13 | 59.99181 | 10.99722 | 5153 ft | 219 kts | 37° |
| 2026-05-05 21:13 | 60.00524 | 11.01043 | 4807 ft | 219 kts | 15° |
| 2026-05-05 21:13 | 60.02013 | 11.01913 | 4180 ft | 226 kts | 14° |
| 2026-05-05 21:13 | 60.03544 | 11.02770 | 3580 ft | 229 kts | 14° |
| 2026-05-05 21:14 | 60.05045 | 11.03597 | 3318 ft | 217 kts | 14° |
| 2026-05-05 21:14 | 60.06494 | 11.04411 | 3055 ft | 216 kts | 14° |
| 2026-05-05 21:14 | 60.07952 | 11.05243 | 2746 ft | 216 kts | 14° |
| 2026-05-05 21:14 | 60.09337 | 11.06038 | 2461 ft | 205 kts | 14° |
| 2026-05-05 21:15 | 60.10662 | 11.06801 | 2195 ft | 191 kts | 13° |
| 2026-05-05 21:15 | 60.11886 | 11.07505 | 1943 ft | 173 kts | 13° |
| 2026-05-05 21:15 | 60.12984 | 11.08138 | 1696 ft | 155 kts | 13° |
| 2026-05-05 21:15 | 60.13990 | 11.08718 | 1443 ft | 146 kts | 13° |
| 2026-05-05 21:16 | 60.14951 | 11.09255 | 1217 ft | 141 kts | 14° |
| 2026-05-05 21:16 | 60.15883 | 11.09778 | 1078 ft | 139 kts | 14° |
| 2026-05-05 21:16 | 60.16811 | 11.10318 | 876 ft | 137 kts | 15° |
| 2026-05-05 21:16 | 60.17725 | 11.10864 | 717 ft | 137 kts | 13° |
| 2026-05-05 21:17 | 60.18609 | 11.11342 | 683 ft | 121 kts | 14° |
| 2026-05-05 21:17 | 60.19273 | 11.11762 | 680 ft | 80 kts | 17° |
| 2026-05-05 21:17 | 60.19697 | 11.12006 | 685 ft | 34 kts | 15° |
| 2026-05-05 21:17 | 60.19798 | 11.12061 | 686 ft | 13 kts | 15° |
| 2026-05-05 21:18 | 60.19896 | 11.12115 | 682 ft | 16 kts | 15° |
| 2026-05-05 21:18 | 60.20012 | 11.12121 | 683 ft | 18 kts | 330° |
| 2026-05-05 21:18 | 60.20067 | 11.11889 | 685 ft | 18 kts | 285° |
| 2026-05-05 21:18 | 60.20072 | 11.11679 | 678 ft | 16 kts | 229° |
| 2026-05-05 21:19 | 60.19959 | 11.11590 | 686 ft | 20 kts | 197° |
| 2026-05-05 21:19 | 60.19812 | 11.11507 | 684 ft | 24 kts | 195° |
| 2026-05-05 21:19 | 60.19693 | 11.11442 | 683 ft | 10 kts | 195° |
| 2026-05-05 21:19 | 60.19619 | 11.11396 | 683 ft | 13 kts | 198° |
| 2026-05-05 21:20 | 60.19529 | 11.11344 | 682 ft | 12 kts | 195° |
| 2026-05-05 21:20 | 60.19498 | 11.11200 | 680 ft | 16 kts | 289° |
| 2026-05-05 21:20 | 60.19530 | 11.10972 | 683 ft | 18 kts | 285° |
| 2026-05-05 21:20 | 60.19568 | 11.10718 | 680 ft | 17 kts | 285° |
| 2026-05-05 21:21 | 60.19596 | 11.10520 | 681 ft | 11 kts | 286° |
| 2026-05-05 21:21 | 60.19561 | 11.10387 | 685 ft | 13 kts | 208° |
| 2026-05-05 21:21 | 60.19509 | 11.10258 | 682 ft | 8 kts | 240° |
| 2026-05-05 21:21 | 60.19488 | 11.10197 | 683 ft | 6 kts | 232° |
| 2026-05-05 21:22 | 60.19476 | 11.10166 | 681 ft | 2 kts | 231° |
| 2026-05-05 21:22 | 60.19472 | 11.10155 | 681 ft | 0 kts | 231° |